createdAt,value
2023-04-03T00:01:11.603Z,13.20
2023-04-03T00:03:58.772Z,14.88
2023-04-03T00:06:26.397Z,16.35
2023-04-03T00:08:53.815Z,13.70
2023-04-03T00:11:22.743Z,13.75
2023-04-03T00:13:50.457Z,15.80
2023-04-03T00:16:21.635Z,14.68
2023-04-03T00:18:49.778Z,18.60
2023-04-03T00:21:17.262Z,22.13
2023-04-03T00:23:44.513Z,27.25
2023-04-03T00:26:14.751Z,27.65
2023-04-03T00:28:43.362Z,26.67
2023-04-03T00:31:10.935Z,27.33
2023-04-03T00:33:38.628Z,27.38
2023-04-03T00:36:08.143Z,27.45
2023-04-03T00:38:35.707Z,26.58
2023-04-03T00:41:03.163Z,26.85
2023-04-03T00:43:30.735Z,27.45
2023-04-03T00:45:58.686Z,27.58
2023-04-03T00:48:29.408Z,29.38
2023-04-03T00:50:56.657Z,26.08
2023-04-03T00:53:35.130Z,18.77
2023-04-03T00:56:02.793Z,15.60
2023-04-03T00:58:39.901Z,12.95
2023-04-03T01:01:09.267Z,7.60
2023-04-03T01:03:37.141Z,6.07
2023-04-03T01:06:04.728Z,5.50
2023-04-03T01:08:31.998Z,5.82
2023-04-03T01:10:59.291Z,5.13
2023-04-03T01:13:31.320Z,4.97
2023-04-03T01:16:01.270Z,5.00
2023-04-03T01:18:28.636Z,4.57
2023-04-03T01:21:01.903Z,5.57
2023-04-03T01:23:53.293Z,4.50
2023-04-03T01:26:21.094Z,4.68
2023-04-03T01:28:48.572Z,4.60
2023-04-03T01:31:21.359Z,4.00
2023-04-03T01:33:48.741Z,4.32
2023-04-03T01:36:23.441Z,4.18
2023-04-03T01:38:51.014Z,3.72
2023-04-03T01:41:18.712Z,4.05
2023-04-03T01:43:45.949Z,3.63
2023-04-03T01:46:13.521Z,4.18
2023-04-03T01:48:41.180Z,4.63
2023-04-03T01:51:08.364Z,3.97
2023-04-03T01:53:35.749Z,3.63
2023-04-03T01:56:03.107Z,4.10
2023-04-03T01:58:30.446Z,4.72
2023-04-03T02:00:57.760Z,4.43
2023-04-03T02:03:26.254Z,5.50
2023-04-03T02:05:54.098Z,5.00
2023-04-03T02:08:23.779Z,5.80
2023-04-03T02:10:52.099Z,6.55
2023-04-03T02:13:19.393Z,7.70
2023-04-03T02:15:46.966Z,9.32
2023-04-03T02:18:14.751Z,12.43
2023-04-03T02:20:44.947Z,14.65
2023-04-03T02:23:12.257Z,16.15
2023-04-03T02:25:39.462Z,14.00
2023-04-03T02:28:09.987Z,18.30
2023-04-03T02:30:37.812Z,18.60
2023-04-03T02:33:10.549Z,18.08
2023-04-03T02:35:41.065Z,16.93
2023-04-03T02:38:08.564Z,18.33
2023-04-03T02:40:36.152Z,15.60
2023-04-03T02:43:03.684Z,13.40
2023-04-03T02:45:31.030Z,10.90
2023-04-03T02:47:58.596Z,8.25
2023-04-03T02:50:25.846Z,9.15
2023-04-03T02:52:53.076Z,11.38
2023-04-03T02:55:20.288Z,12.65
2023-04-03T02:57:47.573Z,14.63
2023-04-03T03:00:15.490Z,14.52
2023-04-03T03:02:43.111Z,15.43
2023-04-03T03:05:10.566Z,15.13
2023-04-03T03:07:41.695Z,17.65
2023-04-03T03:10:09.335Z,18.38
2023-04-03T03:12:36.765Z,18.70
2023-04-03T03:15:04.498Z,17.42
2023-04-03T03:17:32.522Z,16.20
2023-04-03T03:19:59.804Z,18.15
2023-04-03T03:22:27.184Z,15.98
2023-04-03T03:24:54.733Z,13.65
2023-04-03T03:27:22.210Z,11.18
2023-04-03T03:29:50.468Z,11.80
2023-04-03T03:32:17.787Z,8.98
2023-04-03T03:34:45.759Z,8.98
2023-04-03T03:37:13.067Z,7.55
2023-04-03T03:39:40.634Z,6.20
2023-04-03T03:42:07.900Z,6.55
2023-04-03T03:44:35.681Z,6.10
2023-04-03T03:47:04.034Z,5.07
2023-04-03T03:49:31.315Z,4.00
2023-04-03T03:51:58.531Z,4.55
2023-04-03T03:54:25.790Z,4.55
2023-04-03T03:56:53.313Z,6.60
2023-04-03T03:59:21.149Z,7.97
2023-04-03T04:01:48.636Z,7.50
2023-04-03T04:04:16.173Z,7.45
2023-04-03T04:06:43.438Z,7.57
2023-04-03T04:09:10.876Z,6.53
2023-04-03T04:11:38.102Z,6.68
2023-04-03T04:14:05.340Z,5.13
2023-04-03T04:16:33.301Z,5.22
2023-04-03T04:19:00.566Z,6.38
2023-04-03T04:21:31.539Z,6.35
2023-04-03T04:23:59.140Z,6.65
2023-04-03T04:26:27.161Z,6.65
2023-04-03T04:28:54.523Z,5.82
2023-04-03T04:31:21.774Z,6.03
2023-04-03T04:33:50.688Z,5.18
2023-04-03T04:36:18.032Z,4.85
2023-04-03T04:38:47.707Z,5.20
2023-04-03T04:41:15.727Z,5.03
2023-04-03T04:43:42.939Z,5.68
2023-04-03T04:46:12.568Z,5.53
2023-04-03T04:48:41.397Z,4.82
2023-04-03T04:51:08.874Z,4.47
2023-04-03T04:53:36.814Z,4.47
2023-04-03T04:56:09.120Z,4.28
2023-04-03T04:58:38.500Z,3.53
2023-04-03T05:01:07.891Z,3.20
2023-04-03T05:03:38.037Z,3.40
2023-04-03T05:06:06.245Z,3.17
2023-04-03T05:08:33.667Z,3.70
2023-04-03T05:11:00.910Z,3.55
2023-04-03T05:13:30.945Z,3.70
2023-04-03T05:15:58.255Z,3.45
2023-04-03T05:18:25.810Z,2.80
2023-04-03T05:20:53.020Z,3.13
2023-04-03T05:23:20.296Z,3.35
2023-04-03T05:25:48.063Z,3.33
2023-04-03T05:28:15.833Z,3.67
2023-04-03T05:30:43.172Z,4.80
2023-04-03T05:33:11.326Z,5.68
2023-04-03T05:35:42.579Z,5.80
2023-04-03T05:40:38.084Z,5.57
2023-04-03T05:43:05.727Z,6.18
2023-04-03T05:45:33.056Z,6.63
2023-04-03T05:48:00.998Z,5.55
2023-04-03T05:50:28.254Z,4.75
2023-04-03T05:52:57.173Z,4.88
2023-04-03T05:55:24.397Z,4.47
2023-04-03T05:57:51.958Z,4.55
2023-04-03T06:00:19.752Z,5.28
2023-04-03T06:03:07.488Z,5.38
2023-04-03T06:05:36.328Z,4.70
2023-04-03T06:08:04.282Z,4.28
2023-04-03T06:10:32.699Z,3.60
2023-04-03T06:13:00.508Z,3.05
2023-04-03T06:15:28.296Z,3.78
2023-04-03T06:17:56.128Z,3.38
2023-04-03T06:20:23.773Z,3.50
2023-04-03T06:22:51.989Z,2.97
2023-04-03T06:25:19.956Z,2.63
2023-04-03T06:27:47.539Z,2.65
2023-04-03T06:30:14.984Z,2.90
2023-04-03T06:32:44.015Z,2.42
2023-04-03T06:35:12.141Z,3.03
2023-04-03T06:37:39.453Z,2.20
2023-04-03T06:40:07.479Z,2.40
2023-04-03T06:42:36.902Z,2.47
2023-04-03T06:45:04.509Z,2.40
2023-04-03T06:47:31.933Z,2.35
2023-04-03T06:49:59.267Z,2.40
2023-04-03T06:52:27.458Z,2.15
2023-04-03T06:54:58.179Z,2.53
2023-04-03T06:57:25.664Z,2.73
2023-04-03T06:59:53.329Z,2.30
2023-04-03T07:02:22.009Z,2.53
2023-04-03T07:04:49.687Z,2.35
2023-04-03T07:07:18.686Z,2.75
2023-04-03T07:09:47.784Z,2.22
2023-04-03T07:12:15.093Z,2.20
2023-04-03T07:14:43.714Z,2.33
2023-04-03T07:17:11.139Z,2.10
2023-04-03T07:19:38.780Z,1.85
2023-04-03T07:22:06.136Z,2.20
2023-04-03T07:24:33.440Z,1.80
2023-04-03T07:27:01.365Z,1.65
2023-04-03T07:29:28.873Z,1.92
2023-04-03T07:31:56.998Z,1.83
2023-04-03T07:34:24.364Z,2.08
2023-04-03T07:36:51.638Z,2.17
2023-04-03T07:39:18.875Z,1.98
2023-04-03T07:41:46.698Z,1.70
2023-04-03T07:44:14.111Z,1.73
2023-04-03T07:46:41.913Z,2.00
2023-04-03T07:49:09.262Z,1.90
2023-04-03T07:51:37.222Z,1.85
2023-04-03T07:54:05.034Z,2.13
2023-04-03T07:56:33.071Z,2.20
2023-04-03T07:59:01.839Z,2.47
2023-04-03T08:01:29.775Z,2.35
2023-04-03T08:03:58.212Z,2.10
2023-04-03T08:06:37.377Z,2.15
2023-04-03T08:09:05.230Z,1.95
2023-04-03T08:11:32.722Z,2.65
2023-04-03T08:14:00.300Z,2.42
2023-04-03T08:16:28.077Z,2.55
2023-04-03T08:18:55.893Z,2.80
2023-04-03T08:21:23.214Z,2.65
2023-04-03T08:23:53.677Z,3.10
2023-04-03T08:26:22.290Z,3.28
2023-04-03T08:28:50.144Z,3.53
2023-04-03T08:31:19.880Z,3.92
2023-04-03T08:33:48.244Z,3.50
2023-04-03T08:36:26.292Z,2.88
2023-04-03T08:38:53.682Z,3.35
2023-04-03T08:41:33.598Z,3.28
2023-04-03T08:44:20.019Z,4.53
2023-04-03T08:46:53.342Z,4.97
2023-04-03T08:49:33.834Z,5.60
2023-04-03T08:52:04.264Z,7.05
2023-04-03T08:54:35.238Z,6.47
2023-04-03T08:57:04.678Z,6.35
2023-04-03T08:59:38.870Z,6.82
2023-04-03T09:02:19.252Z,5.90
2023-04-03T09:04:46.693Z,5.47
2023-04-03T09:07:18.071Z,5.30
2023-04-03T09:09:46.158Z,5.65
2023-04-03T09:12:18.396Z,5.45
2023-04-03T09:15:16.408Z,6.32
2023-04-03T09:17:45.530Z,6.65
2023-04-03T09:20:21.286Z,5.63
2023-04-03T09:22:52.395Z,5.18
2023-04-03T09:25:25.086Z,5.65
2023-04-03T09:27:52.636Z,5.20
2023-04-03T09:30:22.759Z,5.38
2023-04-03T09:32:52.592Z,8.43
2023-04-03T09:35:32.918Z,6.45
2023-04-03T09:38:11.832Z,5.78
2023-04-03T09:40:40.909Z,7.88
2023-04-03T09:43:21.513Z,8.75
2023-04-03T09:45:49.501Z,8.65
2023-04-03T09:48:19.311Z,10.27
2023-04-03T09:50:57.678Z,10.50
2023-04-03T09:53:36.925Z,9.10
2023-04-03T09:56:22.835Z,9.15
2023-04-03T09:58:51.955Z,7.05
2023-04-03T10:01:22.415Z,7.35
2023-04-03T10:04:03.456Z,5.97
2023-04-03T10:06:32.215Z,4.00
2023-04-03T10:09:06.261Z,4.35
2023-04-03T10:11:35.383Z,4.90
2023-04-03T10:14:06.247Z,4.53
2023-04-03T10:16:44.655Z,4.70
2023-04-03T10:19:35.337Z,4.63
2023-04-03T10:22:23.851Z,4.00
2023-04-03T10:25:16.151Z,3.22
2023-04-03T10:28:07.620Z,4.28
2023-04-03T10:33:43.320Z,3.00
2023-04-03T10:36:39.800Z,2.30
2023-04-03T10:39:50.023Z,2.60
2023-04-03T10:42:35.848Z,2.83
2023-04-03T10:45:15.046Z,3.20
2023-04-03T10:47:47.949Z,2.97
2023-04-03T10:50:27.778Z,2.85
2023-04-03T10:53:35.978Z,3.47
2023-04-03T10:56:21.272Z,2.80
2023-04-03T10:58:56.045Z,2.60
2023-04-03T11:01:44.756Z,2.70
2023-04-03T11:04:12.638Z,2.50
2023-04-03T11:06:54.364Z,3.83
2023-04-03T11:09:29.201Z,3.20
2023-04-03T11:11:59.351Z,3.50
2023-04-03T11:14:36.686Z,3.20
2023-04-03T11:17:19.460Z,3.60
2023-04-03T11:19:52.135Z,3.05
2023-04-03T11:22:37.345Z,2.72
2023-04-03T11:25:11.446Z,3.30
2023-04-03T11:27:55.810Z,3.95
2023-04-03T11:30:29.194Z,3.97
2023-04-03T11:33:11.744Z,4.95
2023-04-03T11:35:42.839Z,7.30
2023-04-03T11:38:15.254Z,6.78
2023-04-03T11:40:42.547Z,8.15
2023-04-03T11:43:30.714Z,9.65
2023-04-03T11:46:04.994Z,9.43
2023-04-03T11:48:33.184Z,9.10
2023-04-03T11:51:18.511Z,8.10
2023-04-03T11:53:46.734Z,7.07
2023-04-03T11:56:25.221Z,7.70
2023-04-03T11:59:11.661Z,8.32
2023-04-03T12:01:55.876Z,8.65
2023-04-03T12:04:25.216Z,7.30
2023-04-03T12:07:02.184Z,8.45
2023-04-03T12:09:43.159Z,7.47
2023-04-03T12:12:30.062Z,8.52
2023-04-03T12:15:12.778Z,7.28
2023-04-03T12:17:45.054Z,6.47
2023-04-03T12:20:49.727Z,7.18
2023-04-03T12:23:29.699Z,6.93
2023-04-03T12:26:22.780Z,7.30
2023-04-03T12:28:50.847Z,8.27
2023-04-03T12:31:18.135Z,8.15
2023-04-03T12:34:07.853Z,7.82
2023-04-03T12:36:59.078Z,9.70
2023-04-03T12:39:49.661Z,9.63
2023-04-03T12:42:19.546Z,9.13
2023-04-03T12:45:11.766Z,10.05
2023-04-03T12:47:40.951Z,10.98
2023-04-03T12:50:31.171Z,11.30
2023-04-03T12:53:02.715Z,10.57
2023-04-03T12:55:30.034Z,10.18
2023-04-03T12:57:57.368Z,9.30
2023-04-03T13:00:30.865Z,10.30
2023-04-03T13:03:24.328Z,9.60
2023-04-03T13:05:59.812Z,10.73
2023-04-03T13:08:27.513Z,9.80
2023-04-03T13:11:07.290Z,9.00
2023-04-03T13:13:35.218Z,8.70
2023-04-03T13:16:11.893Z,8.57
2023-04-03T13:18:39.441Z,9.80
2023-04-03T13:21:18.103Z,8.18
2023-04-03T13:23:47.786Z,8.90
2023-04-03T13:26:17.271Z,9.27
2023-04-03T13:28:44.621Z,10.05
2023-04-03T13:31:16.248Z,10.00
2023-04-03T13:34:11.972Z,10.05
2023-04-03T13:36:47.426Z,9.45
2023-04-03T13:39:14.640Z,9.20
2023-04-03T13:41:44.236Z,8.57
2023-04-03T13:44:23.742Z,9.52
2023-04-03T13:46:56.113Z,9.30
2023-04-03T13:49:29.646Z,8.50
2023-04-03T13:52:06.378Z,8.05
2023-04-03T13:54:39.061Z,7.68
2023-04-03T13:57:16.928Z,7.30
2023-04-03T13:59:44.546Z,7.15
2023-04-03T14:02:19.129Z,7.68
2023-04-03T14:04:54.162Z,7.28
2023-04-03T14:07:22.383Z,6.25
2023-04-03T14:09:49.772Z,5.38
2023-04-03T14:12:35.238Z,6.07
2023-04-03T14:15:03.060Z,5.30
2023-04-03T14:17:32.215Z,5.82
2023-04-03T14:19:59.837Z,5.78
2023-04-03T14:22:31.452Z,4.95
2023-04-03T14:24:59.519Z,4.80
2023-04-03T14:27:28.081Z,5.13
2023-04-03T14:29:56.968Z,4.65
2023-04-03T14:32:24.672Z,4.80
2023-04-03T14:34:52.550Z,4.88
2023-04-03T14:37:22.276Z,6.03
2023-04-03T14:39:49.638Z,6.30
2023-04-03T14:42:19.729Z,6.45
2023-04-03T14:44:47.059Z,6.32
2023-04-03T14:47:29.882Z,7.45
2023-04-03T14:49:59.120Z,6.97
2023-04-03T14:52:30.447Z,7.38
2023-04-03T14:54:58.723Z,6.60
2023-04-03T14:57:27.432Z,6.78
2023-04-03T14:59:55.355Z,6.10
2023-04-03T15:02:32.553Z,7.45
2023-04-03T15:05:02.177Z,7.05
2023-04-03T15:07:30.576Z,6.95
2023-04-03T15:09:57.951Z,6.35
2023-04-03T15:12:25.750Z,6.45
2023-04-03T15:15:00.821Z,6.03
2023-04-03T15:17:30.435Z,5.70
2023-04-03T15:20:00.107Z,5.18
2023-04-03T15:22:27.362Z,5.45
2023-04-03T15:24:54.632Z,5.25
2023-04-03T15:27:21.839Z,6.20
2023-04-03T15:29:49.050Z,5.75
2023-04-03T15:32:16.381Z,5.95
2023-04-03T15:34:43.910Z,7.63
2023-04-03T15:37:13.054Z,6.88
2023-04-03T15:39:40.438Z,7.38
2023-04-03T15:42:07.668Z,6.60
2023-04-03T15:44:35.920Z,7.72
2023-04-03T15:47:03.326Z,7.45
2023-04-03T15:49:31.948Z,7.97
2023-04-03T15:51:59.197Z,8.95
2023-04-03T15:54:26.591Z,9.38
2023-04-03T15:56:54.297Z,12.50
2023-04-03T15:59:22.034Z,16.10
2023-04-03T16:01:50.386Z,20.02
2023-04-03T16:04:18.698Z,20.85
2023-04-03T16:06:51.971Z,24.17
2023-04-03T16:09:19.358Z,26.02
2023-04-03T16:11:46.611Z,26.50
2023-04-03T16:14:17.220Z,29.73
2023-04-03T16:16:44.559Z,28.63
2023-04-03T16:19:12.525Z,30.77
2023-04-03T16:21:40.307Z,29.98
2023-04-03T16:24:07.698Z,29.15
2023-04-03T16:26:36.654Z,27.17
2023-04-03T16:29:04.088Z,25.48
2023-04-03T16:31:31.542Z,22.90
2023-04-03T16:33:59.625Z,19.27
2023-04-03T16:36:26.954Z,19.05
2023-04-03T16:38:54.228Z,17.80
2023-04-03T16:41:21.498Z,17.33
2023-04-03T16:43:49.036Z,14.95
2023-04-03T16:46:16.283Z,15.70
2023-04-03T16:48:43.712Z,14.82
2023-04-03T16:51:13.617Z,13.48
2023-04-03T16:53:40.968Z,14.52
2023-04-03T16:56:08.427Z,12.88
2023-04-03T16:58:36.281Z,12.20
2023-04-03T17:01:12.878Z,11.68
2023-04-03T17:03:41.513Z,11.38
2023-04-03T17:06:09.090Z,10.77
2023-04-03T17:08:36.592Z,11.75
2023-04-03T17:11:11.258Z,10.55
2023-04-03T17:13:39.763Z,10.88
2023-04-03T17:16:08.471Z,10.65
2023-04-03T17:18:35.848Z,10.35
2023-04-03T17:21:03.352Z,9.98
2023-04-03T17:23:30.976Z,10.80
2023-04-03T17:25:58.359Z,11.75
2023-04-03T17:28:28.777Z,11.90
2023-04-03T17:30:57.413Z,15.05
2023-04-03T17:33:26.578Z,14.90
2023-04-03T17:35:56.585Z,17.50
2023-04-03T17:38:23.871Z,20.15
2023-04-03T17:40:51.469Z,20.77
2023-04-03T17:43:19.522Z,21.95
2023-04-03T17:45:46.861Z,24.67
2023-04-03T17:48:15.419Z,24.80
2023-04-03T17:50:43.213Z,26.30
2023-04-03T17:53:12.664Z,27.35
2023-04-03T17:55:40.346Z,29.05
2023-04-03T17:58:07.980Z,31.52
2023-04-03T18:00:36.777Z,34.83
2023-04-03T18:03:12.738Z,31.50
2023-04-03T18:05:40.200Z,32.33
2023-04-03T18:08:08.171Z,33.50
2023-04-03T18:10:36.852Z,32.10
2023-04-03T18:13:07.288Z,33.33
2023-04-03T18:15:35.450Z,32.28
2023-04-03T18:18:02.763Z,33.33
2023-04-03T18:20:33.398Z,31.33
2023-04-03T18:23:01.237Z,30.15
2023-04-03T18:25:28.853Z,30.60
2023-04-03T18:27:58.532Z,31.05
2023-04-03T18:30:26.622Z,27.98
2023-04-03T18:32:55.220Z,25.55
2023-04-03T18:35:22.630Z,26.80
2023-04-03T18:37:49.971Z,24.65
2023-04-03T18:40:17.520Z,22.55
2023-04-03T18:42:44.984Z,23.70
2023-04-03T18:45:13.436Z,21.35
2023-04-03T18:47:40.831Z,20.95
2023-04-03T18:50:08.656Z,22.92
2023-04-03T18:52:36.104Z,22.58
2023-04-03T18:55:03.757Z,21.48
2023-04-03T18:57:31.244Z,21.63
2023-04-03T19:00:04.860Z,23.90
2023-04-03T19:02:37.179Z,22.40
2023-04-03T19:05:05.194Z,21.23
2023-04-03T19:07:34.006Z,19.88
2023-04-03T19:10:01.379Z,20.33
2023-04-03T19:12:28.683Z,21.35
2023-04-03T19:14:56.172Z,20.20
2023-04-03T19:17:23.509Z,20.75
2023-04-03T19:19:50.851Z,20.15
2023-04-03T19:22:18.286Z,20.25
2023-04-03T19:24:45.599Z,18.45
2023-04-03T19:27:14.750Z,17.85
2023-04-03T19:29:42.268Z,18.13
2023-04-03T19:32:12.004Z,17.35
2023-04-03T19:34:41.250Z,17.08
2023-04-03T19:37:08.539Z,17.30
2023-04-03T19:39:37.341Z,15.65
2023-04-03T19:42:05.002Z,16.75
2023-04-03T19:44:35.730Z,16.15
2023-04-03T19:47:03.241Z,16.48
2023-04-03T19:49:30.600Z,15.88
2023-04-03T19:51:57.917Z,15.93
2023-04-03T19:54:25.377Z,14.05
2023-04-03T19:56:53.992Z,14.55
2023-04-03T19:59:21.276Z,14.48
2023-04-03T20:01:48.532Z,15.13
2023-04-03T20:04:16.018Z,14.55
2023-04-03T20:06:43.318Z,13.55
2023-04-03T20:09:11.007Z,14.77
2023-04-03T20:11:42.807Z,14.50
2023-04-03T20:14:10.018Z,13.75
2023-04-03T20:16:38.041Z,14.68
2023-04-03T20:19:07.166Z,13.93
2023-04-03T20:21:34.470Z,14.70
2023-04-03T20:24:03.464Z,14.65
2023-04-03T20:26:31.644Z,14.65
2023-04-03T20:29:00.175Z,14.63
2023-04-03T20:31:28.227Z,13.68
2023-04-03T20:33:56.859Z,13.40
2023-04-03T20:36:26.549Z,14.57
2023-04-03T20:38:53.921Z,13.80
2023-04-03T20:41:21.166Z,13.68
2023-04-03T20:43:48.369Z,13.25
2023-04-03T20:46:20.128Z,14.00
2023-04-03T20:48:48.215Z,14.15
2023-04-03T20:51:18.345Z,14.07
2023-04-03T20:53:46.408Z,13.13
2023-04-03T20:56:14.288Z,13.07
2023-04-03T20:58:47.283Z,12.70
2023-04-03T21:01:24.097Z,12.85
2023-04-03T21:03:55.116Z,13.38
2023-04-03T21:07:02.566Z,14.17
2023-04-03T21:10:07.645Z,13.30
2023-04-03T21:13:12.395Z,13.30
2023-04-03T21:16:07.026Z,14.65
2023-04-03T21:18:51.959Z,12.27
2023-04-03T21:21:20.790Z,14.80
2023-04-03T21:23:48.976Z,14.02
2023-04-03T21:26:17.098Z,12.95
2023-04-03T21:28:44.469Z,13.50
2023-04-03T21:31:12.069Z,13.43
2023-04-03T21:33:39.842Z,12.80
2023-04-03T21:36:07.953Z,13.38
2023-04-03T21:38:35.795Z,12.27
2023-04-03T21:41:03.211Z,13.93
2023-04-03T21:43:30.753Z,12.90
2023-04-03T21:45:58.688Z,14.55
2023-04-03T21:48:29.158Z,13.00
2023-04-03T21:51:02.472Z,14.30
2023-04-03T21:53:31.330Z,13.35
2023-04-03T21:56:00.300Z,12.77
2023-04-03T21:58:30.629Z,13.48
2023-04-03T22:01:07.894Z,12.55
2023-04-03T22:03:37.282Z,12.48
2023-04-03T22:06:05.150Z,13.48
2023-04-03T22:08:33.813Z,13.45
2023-04-03T22:11:04.997Z,15.00
2023-04-03T22:13:32.444Z,15.18
2023-04-03T22:16:00.179Z,13.18
2023-04-03T22:18:28.169Z,13.65
2023-04-03T22:20:55.756Z,14.52
2023-04-03T22:23:23.972Z,14.52
2023-04-03T22:26:10.681Z,14.88
2023-04-03T22:28:41.378Z,13.70
2023-04-03T22:31:09.534Z,14.05
2023-04-03T22:33:37.594Z,13.55
2023-04-03T22:36:05.981Z,13.95
2023-04-03T22:38:33.525Z,15.45
2023-04-03T22:41:03.637Z,14.70
2023-04-03T22:43:33.235Z,14.07
2023-04-03T22:46:02.124Z,13.63
2023-04-03T22:48:31.114Z,15.63
2023-04-03T22:51:00.042Z,14.98
2023-04-03T22:53:28.060Z,17.15
2023-04-03T22:55:56.078Z,16.42
2023-04-03T22:58:26.483Z,14.73
2023-04-03T23:01:07.590Z,15.90
2023-04-03T23:03:36.632Z,15.85
2023-04-03T23:06:04.954Z,15.18
2023-04-03T23:08:38.050Z,17.15
2023-04-03T23:11:07.310Z,14.70
2023-04-03T23:13:34.814Z,15.75
2023-04-03T23:16:02.736Z,16.17
2023-04-03T23:18:31.359Z,15.70
2023-04-03T23:20:59.763Z,15.35
2023-04-03T23:23:27.253Z,17.05
2023-04-03T23:25:59.245Z,17.15
2023-04-03T23:28:27.337Z,16.13
2023-04-03T23:30:59.523Z,15.88
2023-04-03T23:33:27.787Z,15.75
2023-04-03T23:35:55.100Z,13.82
2023-04-03T23:38:26.764Z,15.18
2023-04-03T23:40:54.540Z,15.82
2023-04-03T23:43:21.798Z,15.52
2023-04-03T23:45:49.345Z,17.58
2023-04-03T23:48:17.444Z,17.10
2023-04-03T23:50:44.690Z,16.08
2023-04-03T23:53:14.816Z,15.73
2023-04-03T23:55:42.217Z,14.80
2023-04-03T23:58:10.665Z,15.85
